sensor_id;sensor_type;location;lat;lon;timestamp;pressure;altitude;pressure_sealevel;temperature;humidity
50349;BME280;36250;48.740;22.174;2022-07-06T00:01:17;99702.34;;;21.64;77.38
50349;BME280;36250;48.740;22.174;2022-07-06T00:03:43;99701.00;;;21.56;77.75
50349;BME280;36250;48.740;22.174;2022-07-06T00:06:08;99706.63;;;21.54;77.70
50349;BME280;36250;48.740;22.174;2022-07-06T00:08:33;99713.94;;;21.54;77.84
50349;BME280;36250;48.740;22.174;2022-07-06T00:10:58;99725.25;;;21.56;77.58
50349;BME280;36250;48.740;22.174;2022-07-06T00:13:23;99731.97;;;21.53;77.62
50349;BME280;36250;48.740;22.174;2022-07-06T00:15:49;99735.19;;;21.55;77.50
50349;BME280;36250;48.740;22.174;2022-07-06T00:18:14;99737.09;;;21.55;77.73
50349;BME280;36250;48.740;22.174;2022-07-06T00:20:39;99748.63;;;21.61;77.12
50349;BME280;36250;48.740;22.174;2022-07-06T00:23:04;99748.91;;;21.69;76.83
50349;BME280;36250;48.740;22.174;2022-07-06T00:25:30;99744.88;;;21.72;76.75
50349;BME280;36250;48.740;22.174;2022-07-06T00:27:55;99746.47;;;21.78;76.60
50349;BME280;36250;48.740;22.174;2022-07-06T00:30:20;99749.38;;;21.87;76.26
50349;BME280;36250;48.740;22.174;2022-07-06T00:32:45;99740.72;;;21.95;75.87
50349;BME280;36250;48.740;22.174;2022-07-06T00:35:10;99740.97;;;21.94;75.48
50349;BME280;36250;48.740;22.174;2022-07-06T00:37:36;99745.09;;;21.86;75.72
50349;BME280;36250;48.740;22.174;2022-07-06T00:40:01;99748.59;;;21.81;75.70
50349;BME280;36250;48.740;22.174;2022-07-06T00:42:26;99742.94;;;21.83;75.76
50349;BME280;36250;48.740;22.174;2022-07-06T00:44:51;99744.56;;;21.79;75.45
50349;BME280;36250;48.740;22.174;2022-07-06T00:47:16;99753.72;;;21.78;75.46
50349;BME280;36250;48.740;22.174;2022-07-06T00:49:41;99746.47;;;21.78;75.52
50349;BME280;36250;48.740;22.174;2022-07-06T00:52:25;99757.75;;;21.80;75.50
50349;BME280;36250;48.740;22.174;2022-07-06T00:54:51;99755.34;;;21.79;75.69
50349;BME280;36250;48.740;22.174;2022-07-06T00:57:17;99753.47;;;21.74;75.84
50349;BME280;36250;48.740;22.174;2022-07-06T00:59:42;99758.56;;;21.81;75.56
50349;BME280;36250;48.740;22.174;2022-07-06T01:02:07;99751.03;;;21.83;75.48
50349;BME280;36250;48.740;22.174;2022-07-06T01:04:33;99748.03;;;21.84;75.48
50349;BME280;36250;48.740;22.174;2022-07-06T01:06:58;99744.53;;;21.89;75.34
50349;BME280;36250;48.740;22.174;2022-07-06T01:09:24;99746.69;;;21.87;75.63
50349;BME280;36250;48.740;22.174;2022-07-06T01:11:49;99749.09;;;21.89;75.63
50349;BME280;36250;48.740;22.174;2022-07-06T01:14:15;99751.56;;;21.85;75.67
50349;BME280;36250;48.740;22.174;2022-07-06T01:16:40;99750.22;;;21.82;75.88
50349;BME280;36250;48.740;22.174;2022-07-06T01:19:06;99754.00;;;21.76;76.19
50349;BME280;36250;48.740;22.174;2022-07-06T01:21:31;99758.84;;;21.79;76.02
50349;BME280;36250;48.740;22.174;2022-07-06T01:23:56;99762.38;;;21.75;76.40
50349;BME280;36250;48.740;22.174;2022-07-06T01:26:21;99767.25;;;21.67;76.45
50349;BME280;36250;48.740;22.174;2022-07-06T01:28:50;99765.88;;;21.60;76.75
50349;BME280;36250;48.740;22.174;2022-07-06T01:31:19;99770.50;;;21.59;76.90
50349;BME280;36250;48.740;22.174;2022-07-06T01:33:45;99778.59;;;21.54;77.26
50349;BME280;36250;48.740;22.174;2022-07-06T01:36:10;99784.25;;;21.52;77.29
50349;BME280;36250;48.740;22.174;2022-07-06T01:41:10;99802.59;;;21.40;77.88
50349;BME280;36250;48.740;22.174;2022-07-06T01:43:36;99806.09;;;21.35;78.01
50349;BME280;36250;48.740;22.174;2022-07-06T01:46:02;99812.31;;;21.31;78.14
50349;BME280;36250;48.740;22.174;2022-07-06T01:48:27;99811.53;;;21.15;78.69
50349;BME280;36250;48.740;22.174;2022-07-06T01:50:52;99812.06;;;21.11;78.65
50349;BME280;36250;48.740;22.174;2022-07-06T01:53:17;99824.19;;;21.09;79.17
50349;BME280;36250;48.740;22.174;2022-07-06T01:55:42;99831.47;;;21.03;79.25
50349;BME280;36250;48.740;22.174;2022-07-06T01:58:08;99839.53;;;20.98;80.19
50349;BME280;36250;48.740;22.174;2022-07-06T02:00:33;99836.28;;;20.91;80.53
50349;BME280;36250;48.740;22.174;2022-07-06T02:02:58;99843.56;;;20.80;81.29
50349;BME280;36250;48.740;22.174;2022-07-06T02:05:23;99844.88;;;20.72;81.84
50349;BME280;36250;48.740;22.174;2022-07-06T02:07:49;99855.63;;;20.67;82.62
50349;BME280;36250;48.740;22.174;2022-07-06T02:10:14;99853.44;;;20.59;83.15
50349;BME280;36250;48.740;22.174;2022-07-06T02:12:39;99854.53;;;20.58;83.42
50349;BME280;36250;48.740;22.174;2022-07-06T02:15:05;99859.09;;;20.52;84.28
50349;BME280;36250;48.740;22.174;2022-07-06T02:17:30;99855.59;;;20.56;84.06
50349;BME280;36250;48.740;22.174;2022-07-06T02:19:55;99854.53;;;20.58;84.03
50349;BME280;36250;48.740;22.174;2022-07-06T02:22:20;99853.97;;;20.55;84.38
50349;BME280;36250;48.740;22.174;2022-07-06T02:24:46;99860.97;;;20.51;84.58
50349;BME280;36250;48.740;22.174;2022-07-06T02:27:11;99863.66;;;20.51;84.74
50349;BME280;36250;48.740;22.174;2022-07-06T02:29:36;99870.09;;;20.45;84.99
50349;BME280;36250;48.740;22.174;2022-07-06T02:32:02;99868.47;;;20.44;85.14
50349;BME280;36250;48.740;22.174;2022-07-06T02:34:27;99875.47;;;20.45;85.00
50349;BME280;36250;48.740;22.174;2022-07-06T02:36:52;99884.09;;;20.52;84.94
50349;BME280;36250;48.740;22.174;2022-07-06T02:39:17;99877.94;;;20.52;84.66
50349;BME280;36250;48.740;22.174;2022-07-06T02:41:43;99888.69;;;20.57;84.40
50349;BME280;36250;48.740;22.174;2022-07-06T02:44:08;99881.97;;;20.60;84.49
50349;BME280;36250;48.740;22.174;2022-07-06T02:46:33;99890.03;;;20.60;84.35
50349;BME280;36250;48.740;22.174;2022-07-06T02:48:58;99895.69;;;20.58;84.46
50349;BME280;36250;48.740;22.174;2022-07-06T02:51:23;99899.75;;;20.61;84.26
50349;BME280;36250;48.740;22.174;2022-07-06T02:53:49;99902.16;;;20.57;84.30
50349;BME280;36250;48.740;22.174;2022-07-06T02:56:14;99910.47;;;20.55;84.54
50349;BME280;36250;48.740;22.174;2022-07-06T02:58:39;99922.31;;;20.54;84.70
50349;BME280;36250;48.740;22.174;2022-07-06T03:01:04;99932.81;;;20.51;84.79
50349;BME280;36250;48.740;22.174;2022-07-06T03:03:29;99933.59;;;20.51;84.94
50349;BME280;36250;48.740;22.174;2022-07-06T03:05:55;99943.03;;;20.54;84.98
50349;BME280;36250;48.740;22.174;2022-07-06T03:08:20;99938.72;;;20.48;85.10
50349;BME280;36250;48.740;22.174;2022-07-06T03:10:45;99941.66;;;20.46;85.46
50349;BME280;36250;48.740;22.174;2022-07-06T03:13:10;99949.19;;;20.44;86.07
50349;BME280;36250;48.740;22.174;2022-07-06T03:15:36;99962.34;;;20.40;85.92
50349;BME280;36250;48.740;22.174;2022-07-06T03:18:01;99957.78;;;20.41;86.03
50349;BME280;36250;48.740;22.174;2022-07-06T03:20:26;99959.41;;;20.47;85.77
50349;BME280;36250;48.740;22.174;2022-07-06T03:22:51;99962.38;;;20.46;85.99
50349;BME280;36250;48.740;22.174;2022-07-06T03:25:16;99962.84;;;20.32;86.65
50349;BME280;36250;48.740;22.174;2022-07-06T03:27:42;99968.19;;;20.27;86.84
50349;BME280;36250;48.740;22.174;2022-07-06T03:30:07;99970.63;;;20.23;87.51
50349;BME280;36250;48.740;22.174;2022-07-06T03:32:32;99976.00;;;20.23;87.52
50349;BME280;36250;48.740;22.174;2022-07-06T03:34:58;99971.13;;;20.20;87.55
50349;BME280;36250;48.740;22.174;2022-07-06T03:37:23;99973.31;;;20.23;87.40
50349;BME280;36250;48.740;22.174;2022-07-06T03:39:48;99968.47;;;20.25;87.10
50349;BME280;36250;48.740;22.174;2022-07-06T03:42:13;99972.81;;;20.32;87.79
50349;BME280;36250;48.740;22.174;2022-07-06T03:44:38;99962.59;;;20.39;88.57
50349;BME280;36250;48.740;22.174;2022-07-06T03:47:04;99958.31;;;20.43;88.81
50349;BME280;36250;48.740;22.174;2022-07-06T03:49:29;99965.09;;;20.56;89.87
50349;BME280;36250;48.740;22.174;2022-07-06T03:51:54;99951.91;;;20.60;89.27
50349;BME280;36250;48.740;22.174;2022-07-06T03:54:20;99955.72;;;20.64;89.21
50349;BME280;36250;48.740;22.174;2022-07-06T03:56:45;99958.44;;;20.69;89.67
50349;BME280;36250;48.740;22.174;2022-07-06T03:59:10;99959.22;;;20.75;88.24
50349;BME280;36250;48.740;22.174;2022-07-06T04:01:35;99974.09;;;20.82;86.61
50349;BME280;36250;48.740;22.174;2022-07-06T04:04:00;99967.94;;;20.87;84.74
50349;BME280;36250;48.740;22.174;2022-07-06T04:06:26;99975.19;;;20.92;84.43
50349;BME280;36250;48.740;22.174;2022-07-06T04:08:51;99978.72;;;20.97;84.22
50349;BME280;36250;48.740;22.174;2022-07-06T04:11:16;99983.25;;;20.87;84.59
50349;BME280;36250;48.740;22.174;2022-07-06T04:13:41;99979.16;;;20.74;83.58
50349;BME280;36250;48.740;22.174;2022-07-06T04:16:07;99974.78;;;20.57;81.60
50349;BME280;36250;48.740;22.174;2022-07-06T04:18:32;99983.06;;;20.45;82.91
50349;BME280;36250;48.740;22.174;2022-07-06T04:20:57;99980.59;;;20.33;82.29
50349;BME280;36250;48.740;22.174;2022-07-06T04:23:23;99982.19;;;20.29;82.46
50349;BME280;36250;48.740;22.174;2022-07-06T04:25:49;99981.13;;;20.30;82.29
50349;BME280;36250;48.740;22.174;2022-07-06T04:28:14;99992.16;;;20.29;81.98
50349;BME280;36250;48.740;22.174;2022-07-06T04:30:39;99986.22;;;20.26;81.71
50349;BME280;36250;48.740;22.174;2022-07-06T04:33:04;99985.69;;;20.24;81.63
50349;BME280;36250;48.740;22.174;2022-07-06T04:35:29;99993.19;;;20.22;81.32
50349;BME280;36250;48.740;22.174;2022-07-06T04:37:55;99990.75;;;20.21;81.27
50349;BME280;36250;48.740;22.174;2022-07-06T04:40:20;99992.13;;;20.23;81.28
50349;BME280;36250;48.740;22.174;2022-07-06T04:42:45;99994.00;;;20.28;80.81
50349;BME280;36250;48.740;22.174;2022-07-06T04:45:10;99999.13;;;20.24;80.96
50349;BME280;36250;48.740;22.174;2022-07-06T04:47:36;99998.06;;;20.25;80.40
50349;BME280;36250;48.740;22.174;2022-07-06T04:50:01;99991.81;;;20.20;80.92
50349;BME280;36250;48.740;22.174;2022-07-06T04:52:27;99991.81;;;20.20;80.47
50349;BME280;36250;48.740;22.174;2022-07-06T04:54:53;99990.75;;;20.21;79.83
50349;BME280;36250;48.740;22.174;2022-07-06T04:57:18;99989.69;;;20.22;78.75
50349;BME280;36250;48.740;22.174;2022-07-06T04:59:44;99998.28;;;20.24;78.06
50349;BME280;36250;48.740;22.174;2022-07-06T05:02:09;99997.53;;;20.29;76.36
50349;BME280;36250;48.740;22.174;2022-07-06T05:04:34;99998.63;;;20.33;75.68
50349;BME280;36250;48.740;22.174;2022-07-06T05:06:59;100004.03;;;20.38;75.28
50349;BME280;36250;48.740;22.174;2022-07-06T05:09:25;100006.19;;;20.41;74.89
50349;BME280;36250;48.740;22.174;2022-07-06T05:11:50;100012.13;;;20.43;74.59
50349;BME280;36250;48.740;22.174;2022-07-06T05:14:15;100015.88;;;20.42;75.42
50349;BME280;36250;48.740;22.174;2022-07-06T05:16:40;100021.47;;;20.35;76.02
50349;BME280;36250;48.740;22.174;2022-07-06T05:19:06;100039.75;;;20.33;76.32
50349;BME280;36250;48.740;22.174;2022-07-06T05:21:31;100037.88;;;20.29;76.19
50349;BME280;36250;48.740;22.174;2022-07-06T05:23:56;100036.75;;;20.24;76.46
50349;BME280;36250;48.740;22.174;2022-07-06T05:26:21;100040.78;;;20.22;76.78
50349;BME280;36250;48.740;22.174;2022-07-06T05:28:46;100041.59;;;20.22;76.60
50349;BME280;36250;48.740;22.174;2022-07-06T05:31:12;100043.22;;;20.23;76.93
50349;BME280;36250;48.740;22.174;2022-07-06T05:33:37;100037.28;;;20.21;77.44
50349;BME280;36250;48.740;22.174;2022-07-06T05:36:02;100045.34;;;20.21;77.67
50349;BME280;36250;48.740;22.174;2022-07-06T05:38:27;100049.16;;;20.25;76.50
50349;BME280;36250;48.740;22.174;2022-07-06T05:40:53;100050.28;;;20.35;76.92
50349;BME280;36250;48.740;22.174;2022-07-06T05:43:18;100055.97;;;20.44;77.33
50349;BME280;36250;48.740;22.174;2022-07-06T05:45:43;100049.28;;;20.51;77.10
50349;BME280;36250;48.740;22.174;2022-07-06T05:48:08;100052.81;;;20.57;76.86
50349;BME280;36250;48.740;22.174;2022-07-06T05:50:52;100063.06;;;20.65;76.99
50349;BME280;36250;48.740;22.174;2022-07-06T05:53:17;100055.31;;;20.74;76.16
50349;BME280;36250;48.740;22.174;2022-07-06T05:55:42;100049.47;;;20.82;75.66
50349;BME280;36250;48.740;22.174;2022-07-06T05:58:08;100059.97;;;20.84;75.13
50349;BME280;36250;48.740;22.174;2022-07-06T06:00:33;100059.44;;;20.87;74.77
50349;BME280;36250;48.740;22.174;2022-07-06T06:02:59;100059.44;;;20.87;75.21
50349;BME280;36250;48.740;22.174;2022-07-06T06:05:24;100064.31;;;20.95;75.01
50349;BME280;36250;48.740;22.174;2022-07-06T06:07:50;100061.34;;;20.97;74.34
50349;BME280;36250;48.740;22.174;2022-07-06T06:10:16;100056.50;;;20.99;74.40
50349;BME280;36250;48.740;22.174;2022-07-06T06:12:43;100051.97;;;21.05;74.00
50349;BME280;36250;48.740;22.174;2022-07-06T06:15:09;100060.03;;;21.05;73.70
50349;BME280;36250;48.740;22.174;2022-07-06T06:17:35;100066.25;;;21.05;73.39
50349;BME280;36250;48.740;22.174;2022-07-06T06:20:00;100058.94;;;21.01;72.71
50349;BME280;36250;48.740;22.174;2022-07-06T06:22:25;100077.81;;;21.06;73.12
50349;BME280;36250;48.740;22.174;2022-07-06T06:24:51;100077.56;;;21.12;73.89
50349;BME280;36250;48.740;22.174;2022-07-06T06:27:16;100078.13;;;21.20;72.63
50349;BME280;36250;48.740;22.174;2022-07-06T06:29:41;100086.22;;;21.25;72.72
50349;BME280;36250;48.740;22.174;2022-07-06T06:32:09;100085.69;;;21.28;72.25
50349;BME280;36250;48.740;22.174;2022-07-06T06:34:34;100087.31;;;21.29;72.29
50349;BME280;36250;48.740;22.174;2022-07-06T06:36:59;100092.38;;;21.15;73.86
50349;BME280;36250;48.740;22.174;2022-07-06T06:39:25;100088.84;;;21.04;74.19
50349;BME280;36250;48.740;22.174;2022-07-06T06:41:50;100098.78;;;20.93;75.13
50349;BME280;36250;48.740;22.174;2022-07-06T06:44:15;100102.22;;;20.83;75.63
50349;BME280;36250;48.740;22.174;2022-07-06T06:46:41;100101.91;;;20.80;76.08
50349;BME280;36250;48.740;22.174;2022-07-06T06:49:06;100100.59;;;20.82;76.22
50349;BME280;36250;48.740;22.174;2022-07-06T06:51:32;100103.28;;;20.82;76.56
50349;BME280;36250;48.740;22.174;2022-07-06T06:53:57;100102.22;;;20.83;76.26
50349;BME280;36250;48.740;22.174;2022-07-06T06:56:23;100104.03;;;20.78;76.26
50349;BME280;36250;48.740;22.174;2022-07-06T06:58:48;100105.84;;;20.62;77.06
50349;BME280;36250;48.740;22.174;2022-07-06T07:01:13;100113.88;;;20.56;77.39
50349;BME280;36250;48.740;22.174;2022-07-06T07:03:38;100120.88;;;20.58;77.82
50349;BME280;36250;48.740;22.174;2022-07-06T07:06:03;100115.53;;;20.63;77.21
50349;BME280;36250;48.740;22.174;2022-07-06T07:08:29;100113.13;;;20.66;77.27
50349;BME280;36250;48.740;22.174;2022-07-06T07:10:54;100115.31;;;20.75;76.83
50349;BME280;36250;48.740;22.174;2022-07-06T07:13:19;100123.50;;;20.85;76.20
50349;BME280;36250;48.740;22.174;2022-07-06T07:15:44;100120.81;;;20.85;75.82
50349;BME280;36250;48.740;22.174;2022-07-06T07:18:10;100124.84;;;20.88;75.66
50349;BME280;36250;48.740;22.174;2022-07-06T07:20:35;100121.06;;;20.89;75.48
50349;BME280;36250;48.740;22.174;2022-07-06T07:23:00;100122.69;;;20.84;74.94
50349;BME280;36250;48.740;22.174;2022-07-06T07:25:26;100129.59;;;20.75;75.36
50349;BME280;36250;48.740;22.174;2022-07-06T07:27:51;100137.09;;;20.68;75.35
50349;BME280;36250;48.740;22.174;2022-07-06T07:30:16;100138.38;;;20.60;75.86
50349;BME280;36250;48.740;22.174;2022-07-06T07:32:42;100148.31;;;20.60;75.92
50349;BME280;36250;48.740;22.174;2022-07-06T07:35:07;100149.44;;;20.64;76.35
50349;BME280;36250;48.740;22.174;2022-07-06T07:37:33;100149.38;;;20.53;77.28
50349;BME280;36250;48.740;22.174;2022-07-06T07:39:58;100156.81;;;20.41;78.22
50349;BME280;36250;48.740;22.174;2022-07-06T07:42:23;100155.63;;;20.26;80.75
50349;BME280;36250;48.740;22.174;2022-07-06T07:44:49;100155.81;;;20.15;82.62
50349;BME280;36250;48.740;22.174;2022-07-06T07:47:14;100149.28;;;20.05;85.13
50349;BME280;36250;48.740;22.174;2022-07-06T07:49:39;100160.03;;;20.05;86.94
50349;BME280;36250;48.740;22.174;2022-07-06T07:52:06;100156.56;;;20.10;86.05
50349;BME280;36250;48.740;22.174;2022-07-06T07:54:31;100154.63;;;20.00;86.80
50349;BME280;36250;48.740;22.174;2022-07-06T07:56:56;100163.38;;;19.90;87.98
50349;BME280;36250;48.740;22.174;2022-07-06T07:59:21;100162.41;;;20.02;90.13
50349;BME280;36250;48.740;22.174;2022-07-06T08:01:47;100165.50;;;20.16;88.52
50349;BME280;36250;48.740;22.174;2022-07-06T08:04:12;100167.91;;;20.17;87.07
50349;BME280;36250;48.740;22.174;2022-07-06T08:06:37;100179.81;;;20.21;87.25
50349;BME280;36250;48.740;22.174;2022-07-06T08:09:03;100176.59;;;20.24;89.11
50349;BME280;36250;48.740;22.174;2022-07-06T08:11:29;100183.13;;;20.34;87.90
50349;BME280;36250;48.740;22.174;2022-07-06T08:13:54;100185.88;;;20.44;89.51
50349;BME280;36250;48.740;22.174;2022-07-06T08:16:20;100174.59;;;20.47;85.60
50349;BME280;36250;48.740;22.174;2022-07-06T08:18:45;100168.94;;;20.44;84.06
50349;BME280;36250;48.740;22.174;2022-07-06T08:21:10;100174.69;;;20.58;84.54
50349;BME280;36250;48.740;22.174;2022-07-06T08:23:36;100180.16;;;20.68;84.67
50349;BME280;36250;48.740;22.174;2022-07-06T08:26:02;100184.56;;;20.79;83.92
50349;BME280;36250;48.740;22.174;2022-07-06T08:28:27;100187.25;;;20.79;79.87
50349;BME280;36250;48.740;22.174;2022-07-06T08:30:52;100185.03;;;20.76;79.19
50349;BME280;36250;48.740;22.174;2022-07-06T08:33:19;100198.16;;;20.67;80.57
50349;BME280;36250;48.740;22.174;2022-07-06T08:35:44;100205.75;;;20.76;79.08
50349;BME280;36250;48.740;22.174;2022-07-06T08:38:10;100190.91;;;20.68;76.44
50349;BME280;36250;48.740;22.174;2022-07-06T08:40:35;100192.19;;;20.60;76.50
50349;BME280;36250;48.740;22.174;2022-07-06T08:43:03;100193.28;;;20.59;78.05
50349;BME280;36250;48.740;22.174;2022-07-06T08:45:28;100193.03;;;20.61;77.68
50349;BME280;36250;48.740;22.174;2022-07-06T08:47:54;100196.16;;;20.52;76.42
50349;BME280;36250;48.740;22.174;2022-07-06T08:50:19;100205.31;;;20.51;75.95
50349;BME280;36250;48.740;22.174;2022-07-06T08:52:48;100213.38;;;20.51;75.42
50349;BME280;36250;48.740;22.174;2022-07-06T08:55:14;100210.72;;;20.56;75.37
50349;BME280;36250;48.740;22.174;2022-07-06T08:57:40;100205.44;;;20.67;74.08
50349;BME280;36250;48.740;22.174;2022-07-06T09:00:08;100209.81;;;20.78;73.38
50349;BME280;36250;48.740;22.174;2022-07-06T09:02:34;100204.78;;;20.82;73.25
50349;BME280;36250;48.740;22.174;2022-07-06T09:04:59;100195.41;;;20.95;72.54
50349;BME280;36250;48.740;22.174;2022-07-06T09:07:26;100200.88;;;21.05;72.52
50349;BME280;36250;48.740;22.174;2022-07-06T09:09:52;100198.72;;;21.07;71.81
50349;BME280;36250;48.740;22.174;2022-07-06T09:12:18;100194.13;;;21.08;70.32
50349;BME280;36250;48.740;22.174;2022-07-06T09:14:44;100202.22;;;21.13;71.63
50349;BME280;36250;48.740;22.174;2022-07-06T09:17:09;100203.09;;;21.24;70.71
50349;BME280;36250;48.740;22.174;2022-07-06T09:19:36;100214.06;;;21.12;71.84
50349;BME280;36250;48.740;22.174;2022-07-06T09:22:02;100210.56;;;21.06;71.58
50349;BME280;36250;48.740;22.174;2022-07-06T09:24:27;100212.47;;;21.11;70.90
50349;BME280;36250;48.740;22.174;2022-07-06T09:26:56;100219.75;;;21.10;70.50
50349;BME280;36250;48.740;22.174;2022-07-06T09:29:26;100212.47;;;21.16;70.59
50349;BME280;36250;48.740;22.174;2022-07-06T09:31:55;100215.72;;;21.18;69.21
50349;BME280;36250;48.740;22.174;2022-07-06T09:34:20;100207.97;;;21.27;69.10
50349;BME280;36250;48.740;22.174;2022-07-06T09:36:47;100215.78;;;21.28;68.62
50349;BME280;36250;48.740;22.174;2022-07-06T09:41:47;100212.25;;;21.18;66.44
50349;BME280;36250;48.740;22.174;2022-07-06T09:44:13;100222.09;;;21.02;67.60
50349;BME280;36250;48.740;22.174;2022-07-06T09:46:43;100223.50;;;21.09;68.38
50349;BME280;36250;48.740;22.174;2022-07-06T09:49:10;100231.63;;;21.20;68.03
50349;BME280;36250;48.740;22.174;2022-07-06T09:51:36;100217.59;;;21.12;66.39
50349;BME280;36250;48.740;22.174;2022-07-06T09:54:05;100238.31;;;21.12;64.86
50349;BME280;36250;48.740;22.174;2022-07-06T09:56:42;100232.41;;;21.15;64.67
50349;BME280;36250;48.740;22.174;2022-07-06T09:59:12;100236.78;;;21.26;64.64
50349;BME280;36250;48.740;22.174;2022-07-06T10:01:38;100240.31;;;21.37;65.28
50349;BME280;36250;48.740;22.174;2022-07-06T10:04:07;100241.50;;;21.52;64.26
50349;BME280;36250;48.740;22.174;2022-07-06T10:06:33;100237.19;;;21.56;63.36
50349;BME280;36250;48.740;22.174;2022-07-06T10:08:59;100235.94;;;21.69;62.59
50349;BME280;36250;48.740;22.174;2022-07-06T10:11:24;100249.72;;;21.83;62.83
50349;BME280;36250;48.740;22.174;2022-07-06T10:13:50;100244.06;;;21.90;61.30
50349;BME280;36250;48.740;22.174;2022-07-06T10:16:19;100242.75;;;22.03;60.08
50349;BME280;36250;48.740;22.174;2022-07-06T10:18:45;100246.53;;;22.17;60.40
50349;BME280;36250;48.740;22.174;2022-07-06T10:21:10;100246.03;;;22.36;59.06
50349;BME280;36250;48.740;22.174;2022-07-06T10:23:36;100237.97;;;22.62;58.77
50349;BME280;36250;48.740;22.174;2022-07-06T10:26:01;100239.56;;;22.89;58.26
50349;BME280;36250;48.740;22.174;2022-07-06T10:28:26;100232.50;;;23.19;55.23
50349;BME280;36250;48.740;22.174;2022-07-06T10:30:52;100223.84;;;23.27;55.85
50349;BME280;36250;48.740;22.174;2022-07-06T10:33:17;100231.69;;;23.28;55.79
50349;BME280;36250;48.740;22.174;2022-07-06T10:35:43;100227.56;;;23.41;56.02
50349;BME280;36250;48.740;22.174;2022-07-06T10:38:09;100231.53;;;23.59;54.73
50349;BME280;36250;48.740;22.174;2022-07-06T10:40:39;100218.66;;;23.41;54.17
50349;BME280;36250;48.740;22.174;2022-07-06T10:43:33;100208.66;;;23.41;53.58
50349;BME280;36250;48.740;22.174;2022-07-06T10:45:59;100201.19;;;23.78;53.58
50349;BME280;36250;48.740;22.174;2022-07-06T10:48:36;100213.19;;;24.07;52.34
50349;BME280;36250;48.740;22.174;2022-07-06T10:51:02;100205.00;;;24.17;52.43
50349;BME280;36250;48.740;22.174;2022-07-06T10:53:36;100203.13;;;24.18;52.02
50349;BME280;36250;48.740;22.174;2022-07-06T10:56:07;100205.53;;;24.19;50.84
50349;BME280;36250;48.740;22.174;2022-07-06T10:58:45;100199.88;;;24.15;50.81
50349;BME280;36250;48.740;22.174;2022-07-06T11:01:11;100206.44;;;24.09;49.93
50349;BME280;36250;48.740;22.174;2022-07-06T11:06:21;100209.53;;;24.27;50.46
50349;BME280;36250;48.740;22.174;2022-07-06T11:11:12;100221.63;;;24.69;48.28
50349;BME280;36250;48.740;22.174;2022-07-06T11:13:48;100195.38;;;24.65;46.69
50349;BME280;36250;48.740;22.174;2022-07-06T11:16:14;100192.69;;;24.65;47.10
50349;BME280;36250;48.740;22.174;2022-07-06T11:18:40;100193.31;;;24.86;46.70
50349;BME280;36250;48.740;22.174;2022-07-06T11:23:40;100189.38;;;24.73;46.13
50349;BME280;36250;48.740;22.174;2022-07-06T11:26:05;100186.91;;;24.77;44.02
50349;BME280;36250;48.740;22.174;2022-07-06T11:28:31;100179.25;;;24.84;43.60
50349;BME280;36250;48.740;22.174;2022-07-06T11:30:57;100171.69;;;24.51;44.11
50349;BME280;36250;48.740;22.174;2022-07-06T11:33:29;100173.16;;;24.68;44.21
50349;BME280;36250;48.740;22.174;2022-07-06T11:36:10;100172.09;;;24.64;45.02
50349;BME280;36250;48.740;22.174;2022-07-06T11:38:36;100167.34;;;25.09;44.23
50349;BME280;36250;48.740;22.174;2022-07-06T11:41:01;100166.25;;;25.54;43.53
50349;BME280;36250;48.740;22.174;2022-07-06T11:43:26;100170.63;;;25.88;41.83
50349;BME280;36250;48.740;22.174;2022-07-06T11:45:51;100171.28;;;25.99;40.40
50349;BME280;36250;48.740;22.174;2022-07-06T11:48:16;100169.09;;;25.82;41.64
50349;BME280;36250;48.740;22.174;2022-07-06T11:50:42;100179.75;;;25.59;41.77
50349;BME280;36250;48.740;22.174;2022-07-06T11:53:07;100180.78;;;25.63;41.19
50349;BME280;36250;48.740;22.174;2022-07-06T11:55:32;100175.78;;;25.89;41.02
50349;BME280;36250;48.740;22.174;2022-07-06T11:57:58;100179.53;;;25.31;41.64
50349;BME280;36250;48.740;22.174;2022-07-06T12:00:24;100174.94;;;25.07;42.76
50349;BME280;36250;48.740;22.174;2022-07-06T12:02:59;100166.69;;;25.17;42.78
50349;BME280;36250;48.740;22.174;2022-07-06T12:05:29;100177.03;;;25.15;42.67
50349;BME280;36250;48.740;22.174;2022-07-06T12:08:04;100172.97;;;25.13;42.03
50349;BME280;36250;48.740;22.174;2022-07-06T12:10:33;100159.59;;;25.22;42.80
50349;BME280;36250;48.740;22.174;2022-07-06T12:13:04;100156.38;;;25.63;41.98
50349;BME280;36250;48.740;22.174;2022-07-06T12:15:29;100175.41;;;25.58;41.34
50349;BME280;36250;48.740;22.174;2022-07-06T12:17:54;100178.56;;;25.65;41.25
50349;BME280;36250;48.740;22.174;2022-07-06T12:20:19;100175.63;;;25.62;41.58
50349;BME280;36250;48.740;22.174;2022-07-06T12:22:45;100180.16;;;25.47;41.77
50349;BME280;36250;48.740;22.174;2022-07-06T12:25:10;100173.56;;;25.53;41.47
50349;BME280;36250;48.740;22.174;2022-07-06T12:27:35;100176.63;;;25.46;41.77
50349;BME280;36250;48.740;22.174;2022-07-06T12:30:10;100198.28;;;25.52;41.12
50349;BME280;36250;48.740;22.174;2022-07-06T12:32:35;100181.44;;;25.55;42.04
50349;BME280;36250;48.740;22.174;2022-07-06T12:35:04;100179.34;;;25.66;41.63
50349;BME280;36250;48.740;22.174;2022-07-06T12:37:30;100170.06;;;25.91;39.67
50349;BME280;36250;48.740;22.174;2022-07-06T12:39:55;100154.84;;;25.90;35.36
50349;BME280;36250;48.740;22.174;2022-07-06T12:42:20;100154.72;;;26.00;38.04
50349;BME280;36250;48.740;22.174;2022-07-06T12:44:51;100154.94;;;26.37;36.48
50349;BME280;36250;48.740;22.174;2022-07-06T12:47:21;100173.72;;;26.00;37.57
50349;BME280;36250;48.740;22.174;2022-07-06T12:49:48;100160.44;;;25.99;39.15